createdAt,value
2022-07-25T00:03:25.511Z,100793.63
2022-07-25T00:08:50.582Z,100787.63
2022-07-25T00:14:12.428Z,100787.38
2022-07-25T00:19:34.271Z,100776.59
2022-07-25T00:24:56.095Z,100783.91
2022-07-25T00:30:17.963Z,100782.09
2022-07-25T00:35:39.796Z,100763.03
2022-07-25T00:41:03.831Z,100759.56
2022-07-25T00:46:25.745Z,100742.03
2022-07-25T00:51:49.847Z,100749.53
2022-07-25T00:57:11.732Z,100752.34
2022-07-25T01:02:33.660Z,100760.25
2022-07-25T01:07:56.119Z,100759.50
2022-07-25T01:13:17.960Z,100765.41
2022-07-25T01:18:42.736Z,100756.94
2022-07-25T01:24:06.155Z,100754.72
2022-07-25T01:29:30.213Z,100747.75
2022-07-25T01:34:52.033Z,100754.66
2022-07-25T01:40:14.559Z,100738.72
2022-07-25T01:45:36.724Z,100725.88
2022-07-25T01:50:58.569Z,100740.47
2022-07-25T01:56:21.912Z,100737.25
2022-07-25T02:01:44.615Z,100740.75
2022-07-25T02:07:06.509Z,100745.28
2022-07-25T02:12:28.497Z,100740.47
2022-07-25T02:17:50.318Z,100742.56
2022-07-25T02:23:12.162Z,100731.31
2022-07-25T02:28:34.062Z,100742.22
2022-07-25T02:33:57.042Z,100735.53
2022-07-25T02:39:18.865Z,100744.44
2022-07-25T02:44:40.656Z,100736.63
2022-07-25T02:50:02.505Z,100745.28
2022-07-25T02:55:24.346Z,100744.22
2022-07-25T03:00:46.198Z,100745.69
2022-07-25T03:06:08.122Z,100760.44
2022-07-25T03:11:30.065Z,100749.81
2022-07-25T03:16:51.919Z,100758.47
2022-07-25T03:22:13.761Z,100736.66
2022-07-25T03:27:35.600Z,100746.97
2022-07-25T03:32:57.447Z,100736.44
2022-07-25T03:38:19.426Z,100740.22
2022-07-25T03:43:41.278Z,100737.63
2022-07-25T03:49:03.331Z,100743.47
2022-07-25T03:54:25.246Z,100744.84
2022-07-25T03:59:47.084Z,100726.06
2022-07-25T04:05:09.812Z,100735.31
2022-07-25T04:10:31.804Z,100734.78
2022-07-25T04:15:53.582Z,100728.91
2022-07-25T04:21:15.385Z,100740.66
2022-07-25T04:26:37.187Z,100729.41
2022-07-25T04:31:59.061Z,100732.50
2022-07-25T04:37:20.981Z,100733.34
2022-07-25T04:42:42.779Z,100724.34
2022-07-25T04:48:05.372Z,100725.91
2022-07-25T04:53:27.238Z,100728.16
2022-07-25T04:58:49.066Z,100729.53
2022-07-25T05:04:10.915Z,100732.59
2022-07-25T05:09:32.760Z,100732.13
2022-07-25T05:14:54.583Z,100726.03
2022-07-25T05:20:16.447Z,100717.41
2022-07-25T05:25:38.426Z,100728.13
2022-07-25T05:31:00.288Z,100714.34
2022-07-25T05:36:22.139Z,100708.69
2022-07-25T05:41:43.952Z,100709.97
2022-07-25T05:47:12.900Z,100709.81
2022-07-25T05:52:34.815Z,100708.47
2022-07-25T05:57:56.652Z,100697.38
2022-07-25T06:03:19.185Z,100711.50
2022-07-25T06:08:41.062Z,100704.22
2022-07-25T06:14:04.462Z,100704.09
2022-07-25T06:19:29.073Z,100699.28
2022-07-25T06:24:50.911Z,100686.97
2022-07-25T06:30:19.713Z,100694.09
2022-07-25T06:35:42.167Z,100677.00
2022-07-25T06:41:04.055Z,100670.97
2022-07-25T06:46:25.932Z,100671.03
2022-07-25T06:51:47.790Z,100663.38
2022-07-25T06:57:09.575Z,100651.13
2022-07-25T07:02:31.444Z,100658.72
2022-07-25T07:07:53.566Z,100654.22
2022-07-25T07:13:18.506Z,100657.47
2022-07-25T07:18:45.794Z,100650.72
2022-07-25T07:24:23.964Z,100661.56
2022-07-25T07:29:46.683Z,100664.75
2022-07-25T07:35:09.457Z,100648.84
2022-07-25T07:40:32.065Z,100641.88
2022-07-25T07:45:53.861Z,100623.50
2022-07-25T07:51:15.799Z,100632.16
2022-07-25T07:56:37.642Z,100641.75
2022-07-25T08:01:59.627Z,100628.06
2022-07-25T08:07:21.572Z,100630.94
2022-07-25T08:12:43.509Z,100620.94
2022-07-25T08:18:05.405Z,100606.88
2022-07-25T08:23:39.929Z,100604.63
2022-07-25T08:29:18.279Z,100607.72
2022-07-25T08:34:41.371Z,100596.78
2022-07-25T08:40:03.675Z,100606.88
2022-07-25T08:45:26.766Z,100595.91
2022-07-25T08:50:49.594Z,100584.94
2022-07-25T08:56:14.874Z,100584.78
2022-07-25T09:01:40.788Z,100584.84
2022-07-25T09:07:07.792Z,100569.69
2022-07-25T09:12:30.305Z,100577.16
2022-07-25T09:17:53.237Z,100577.94
2022-07-25T09:23:28.638Z,100571.25
2022-07-25T09:28:52.160Z,100563.00
2022-07-25T09:34:18.041Z,100560.06
2022-07-25T09:39:46.940Z,100550.50
2022-07-25T09:45:12.138Z,100555.03
2022-07-25T09:50:34.053Z,100545.41
2022-07-25T09:55:56.483Z,100558.72
2022-07-25T10:01:32.858Z,100549.16
2022-07-25T10:07:03.625Z,100557.94
2022-07-25T10:12:25.492Z,100539.47
2022-07-25T10:17:47.363Z,100545.69
2022-07-25T10:23:19.031Z,100541.53
2022-07-25T10:28:51.453Z,100531.53
2022-07-25T10:34:13.294Z,100522.63
2022-07-25T10:39:43.038Z,100518.72
2022-07-25T10:45:07.188Z,100506.25
2022-07-25T10:50:54.539Z,100499.09
2022-07-25T10:56:17.533Z,100495.50
2022-07-25T11:01:39.551Z,100492.31
2022-07-25T11:07:09.080Z,100478.47
2022-07-25T11:12:31.225Z,100469.72
2022-07-25T11:17:53.945Z,100468.13
2022-07-25T11:23:22.007Z,100471.41
2022-07-25T11:28:48.862Z,100478.44
2022-07-25T11:34:10.815Z,100476.63
2022-07-25T11:39:38.703Z,100465.78
2022-07-25T11:45:00.568Z,100453.72
2022-07-25T11:50:29.958Z,100457.16
2022-07-25T11:55:51.792Z,100443.78
2022-07-25T12:01:15.818Z,100438.94
2022-07-25T12:06:37.662Z,100432.31
2022-07-25T12:12:04.181Z,100429.25
2022-07-25T12:17:26.048Z,100432.91
2022-07-25T12:22:52.641Z,100429.06
2022-07-25T12:28:14.856Z,100418.81
2022-07-25T12:33:36.705Z,100406.72
2022-07-25T12:38:58.556Z,100402.69
2022-07-25T12:44:20.378Z,100399.47
2022-07-25T12:49:42.382Z,100389.72
2022-07-25T12:55:06.785Z,100383.88
2022-07-25T13:00:28.734Z,100375.31
2022-07-25T13:05:50.598Z,100383.06
2022-07-25T13:11:12.609Z,100375.78
2022-07-25T13:16:34.570Z,100360.38
2022-07-25T13:21:56.485Z,100351.25
2022-07-25T13:27:20.123Z,100344.13
2022-07-25T13:32:42.079Z,100335.91
2022-07-25T13:38:04.173Z,100328.97
2022-07-25T13:43:26.025Z,100316.56
2022-07-25T13:48:47.898Z,100328.97
2022-07-25T13:54:09.741Z,100311.13
2022-07-25T13:59:31.626Z,100312.19
2022-07-25T14:04:53.486Z,100309.28
2022-07-25T14:10:15.581Z,100303.22
2022-07-25T14:15:37.492Z,100298.25
2022-07-25T14:20:59.578Z,100283.59
2022-07-25T14:26:21.478Z,100287.16
2022-07-25T14:31:43.377Z,100292.88
2022-07-25T14:37:05.398Z,100288.44
2022-07-25T14:42:27.530Z,100272.34
2022-07-25T14:47:49.362Z,100262.91
2022-07-25T14:53:11.195Z,100248.13
2022-07-25T14:58:33.757Z,100243.66
2022-07-25T15:03:55.649Z,100241.31
2022-07-25T15:09:21.051Z,100225.63
2022-07-25T15:14:42.845Z,100230.97
2022-07-25T15:20:05.225Z,100225.28
2022-07-25T15:25:59.915Z,100208.03
2022-07-25T15:31:08.964Z,100212.84
2022-07-25T15:36:30.872Z,100196.25
2022-07-25T15:41:52.714Z,100201.22
2022-07-25T15:47:14.670Z,100200.66
2022-07-25T15:52:36.537Z,100196.00
2022-07-25T15:57:58.623Z,100189.63
2022-07-25T16:03:20.523Z,100189.28
2022-07-25T16:08:42.409Z,100190.63
2022-07-25T16:14:04.607Z,100192.16
2022-07-25T16:19:26.444Z,100188.91
2022-07-25T16:24:48.353Z,100185.91
2022-07-25T16:30:10.610Z,100181.41
2022-07-25T16:35:32.574Z,100173.28
2022-07-25T16:40:54.666Z,100167.97
2022-07-25T16:46:16.588Z,100167.31
2022-07-25T16:51:38.441Z,100167.28
2022-07-25T16:57:01.043Z,100157.16
2022-07-25T17:02:28.886Z,100142.81
2022-07-25T17:07:57.062Z,100157.66
2022-07-25T17:13:21.353Z,100154.25
2022-07-25T17:18:43.219Z,100150.75
2022-07-25T17:24:05.355Z,100131.63
2022-07-25T17:29:27.299Z,100136.56
2022-07-25T17:34:49.153Z,100122.94
2022-07-25T17:40:11.487Z,100113.63
2022-07-25T17:45:33.406Z,100110.63
2022-07-25T17:50:55.215Z,100112.50
2022-07-25T17:56:17.083Z,100109.84
2022-07-25T18:01:39.107Z,100108.97
2022-07-25T18:07:01.025Z,100101.25
2022-07-25T18:12:27.437Z,100105.16
2022-07-25T18:17:51.385Z,100093.38
2022-07-25T18:23:13.222Z,100096.72
2022-07-25T18:28:35.936Z,100101.59
2022-07-25T18:33:57.834Z,100074.94
2022-07-25T18:39:19.666Z,100085.53
2022-07-25T18:44:41.505Z,100080.97
2022-07-25T18:50:04.264Z,100072.22
2022-07-25T18:55:26.091Z,100072.81
2022-07-25T19:00:47.894Z,100085.16
2022-07-25T19:06:09.983Z,100074.41
2022-07-25T19:11:31.796Z,100072.44
2022-07-25T19:16:54.668Z,100061.72
2022-07-25T19:22:16.667Z,100058.84
2022-07-25T19:27:39.704Z,100055.88
2022-07-25T19:33:01.512Z,100056.94
2022-07-25T19:38:23.358Z,100034.59
2022-07-25T19:43:45.236Z,100043.34
2022-07-25T19:49:07.169Z,100045.88
2022-07-25T19:54:29.023Z,100049.63
2022-07-25T19:59:50.850Z,100042.91
2022-07-25T20:05:12.739Z,100054.13
2022-07-25T20:10:34.554Z,100050.78
2022-07-25T20:15:56.792Z,100051.91
2022-07-25T20:21:18.908Z,100038.31
2022-07-25T20:26:41.167Z,100046.34
2022-07-25T20:32:03.619Z,100045.66
2022-07-25T20:37:25.683Z,100034.03
2022-07-25T20:42:47.825Z,100041.63
2022-07-25T20:48:09.941Z,100041.31
2022-07-25T20:53:31.786Z,100041.72
2022-07-25T20:58:53.581Z,100044.75
2022-07-25T21:04:15.415Z,100045.00
2022-07-25T21:09:37.249Z,100058.44
2022-07-25T21:14:59.071Z,100062.00
2022-07-25T21:20:20.879Z,100069.28
2022-07-25T21:25:42.832Z,100071.41
2022-07-25T21:31:04.786Z,100068.06
2022-07-25T21:36:27.581Z,100069.44
2022-07-25T21:41:54.957Z,100071.47
2022-07-25T21:47:17.453Z,100053.00
2022-07-25T21:52:39.331Z,100069.78
2022-07-25T21:58:01.198Z,100076.78
2022-07-25T22:03:23.118Z,100080.13
2022-07-25T22:08:45.228Z,100073.19
2022-07-25T22:14:07.129Z,100065.28
2022-07-25T22:19:29.119Z,100059.00
2022-07-25T22:24:50.989Z,100049.25
2022-07-25T22:30:18.207Z,100044.97
2022-07-25T22:35:40.906Z,100021.75
2022-07-25T22:41:02.838Z,100024.72
2022-07-25T22:46:25.333Z,100023.41
2022-07-25T22:51:47.257Z,100014.63
2022-07-25T22:57:09.106Z,100001.03
2022-07-25T23:02:30.990Z,99997.19
2022-07-25T23:07:52.847Z,99991.81
2022-07-25T23:13:14.691Z,99995.66
2022-07-25T23:18:36.546Z,99984.59
2022-07-25T23:23:58.442Z,99981.38
2022-07-25T23:29:20.300Z,99988.06
2022-07-25T23:34:42.207Z,99976.66
2022-07-25T23:40:05.121Z,99969.63
2022-07-25T23:45:27.621Z,99952.31
2022-07-25T23:50:50.353Z,99945.63
2022-07-25T23:56:13.474Z,99960.06
